sensor_id;sensor_type;location;lat;lon;timestamp;P1;durP1;ratioP1;P2;durP2;ratioP2
72413;SDS011;60995;52.154;4.498;2023-02-28T00:00:11;15.75;;;4.00;;
72413;SDS011;60995;52.154;4.498;2023-02-28T00:02:29;11.63;;;3.70;;
72413;SDS011;60995;52.154;4.498;2023-02-28T00:04:45;10.15;;;3.53;;
72413;SDS011;60995;52.154;4.498;2023-02-28T00:07:08;13.32;;;3.78;;
72413;SDS011;60995;52.154;4.498;2023-02-28T00:09:25;11.77;;;4.03;;
72413;SDS011;60995;52.154;4.498;2023-02-28T00:11:41;12.45;;;4.35;;
72413;SDS011;60995;52.154;4.498;2023-02-28T00:13:58;11.68;;;3.90;;
72413;SDS011;60995;52.154;4.498;2023-02-28T00:16:16;10.27;;;3.60;;
72413;SDS011;60995;52.154;4.498;2023-02-28T00:18:36;10.82;;;3.70;;
72413;SDS011;60995;52.154;4.498;2023-02-28T00:20:53;12.43;;;3.78;;
72413;SDS011;60995;52.154;4.498;2023-02-28T00:23:10;12.63;;;3.58;;
72413;SDS011;60995;52.154;4.498;2023-02-28T00:25:29;11.63;;;4.03;;
72413;SDS011;60995;52.154;4.498;2023-02-28T00:27:50;12.77;;;3.78;;
72413;SDS011;60995;52.154;4.498;2023-02-28T00:30:07;11.32;;;3.47;;
72413;SDS011;60995;52.154;4.498;2023-02-28T00:32:27;12.90;;;3.97;;
72413;SDS011;60995;52.154;4.498;2023-02-28T00:34:44;9.82;;;3.72;;
72413;SDS011;60995;52.154;4.498;2023-02-28T00:37:00;8.95;;;3.50;;
72413;SDS011;60995;52.154;4.498;2023-02-28T00:39:16;11.85;;;3.75;;
72413;SDS011;60995;52.154;4.498;2023-02-28T00:41:33;14.40;;;4.03;;
72413;SDS011;60995;52.154;4.498;2023-02-28T00:43:49;12.18;;;3.67;;
72413;SDS011;60995;52.154;4.498;2023-02-28T00:46:06;11.93;;;3.42;;
72413;SDS011;60995;52.154;4.498;2023-02-28T00:48:23;13.35;;;4.30;;
72413;SDS011;60995;52.154;4.498;2023-02-28T00:50:39;10.57;;;4.32;;
72413;SDS011;60995;52.154;4.498;2023-02-28T00:52:58;11.75;;;4.18;;
72413;SDS011;60995;52.154;4.498;2023-02-28T00:55:15;16.02;;;4.05;;
72413;SDS011;60995;52.154;4.498;2023-02-28T00:57:31;9.38;;;3.65;;
72413;SDS011;60995;52.154;4.498;2023-02-28T00:59:48;16.75;;;4.18;;
72413;SDS011;60995;52.154;4.498;2023-02-28T01:02:04;21.38;;;9.63;;
72413;SDS011;60995;52.154;4.498;2023-02-28T01:04:20;15.20;;;4.75;;
72413;SDS011;60995;52.154;4.498;2023-02-28T01:06:37;14.15;;;3.42;;
72413;SDS011;60995;52.154;4.498;2023-02-28T01:08:54;13.13;;;4.07;;
72413;SDS011;60995;52.154;4.498;2023-02-28T01:11:11;13.02;;;3.67;;
72413;SDS011;60995;52.154;4.498;2023-02-28T01:13:31;12.98;;;4.03;;
72413;SDS011;60995;52.154;4.498;2023-02-28T01:15:52;13.63;;;3.83;;
72413;SDS011;60995;52.154;4.498;2023-02-28T01:18:11;11.63;;;4.40;;
72413;SDS011;60995;52.154;4.498;2023-02-28T01:20:27;11.60;;;3.78;;
72413;SDS011;60995;52.154;4.498;2023-02-28T01:22:44;13.60;;;3.90;;
72413;SDS011;60995;52.154;4.498;2023-02-28T01:25:00;12.23;;;3.63;;
72413;SDS011;60995;52.154;4.498;2023-02-28T01:27:17;15.70;;;4.30;;
72413;SDS011;60995;52.154;4.498;2023-02-28T01:29:33;11.75;;;4.35;;
72413;SDS011;60995;52.154;4.498;2023-02-28T01:31:49;16.00;;;4.75;;
72413;SDS011;60995;52.154;4.498;2023-02-28T01:34:06;10.55;;;4.10;;
72413;SDS011;60995;52.154;4.498;2023-02-28T01:36:23;15.68;;;4.40;;
72413;SDS011;60995;52.154;4.498;2023-02-28T01:38:40;32.40;;;13.20;;
72413;SDS011;60995;52.154;4.498;2023-02-28T01:40:57;13.48;;;4.95;;
72413;SDS011;60995;52.154;4.498;2023-02-28T01:43:24;13.32;;;4.05;;
72413;SDS011;60995;52.154;4.498;2023-02-28T01:45:42;12.27;;;4.20;;
72413;SDS011;60995;52.154;4.498;2023-02-28T01:48:00;11.82;;;4.00;;
72413;SDS011;60995;52.154;4.498;2023-02-28T01:50:24;14.43;;;3.95;;
72413;SDS011;60995;52.154;4.498;2023-02-28T01:55:05;12.15;;;4.00;;
72413;SDS011;60995;52.154;4.498;2023-02-28T01:57:25;11.55;;;3.88;;
72413;SDS011;60995;52.154;4.498;2023-02-28T01:59:54;12.25;;;4.25;;
72413;SDS011;60995;52.154;4.498;2023-02-28T02:02:21;10.85;;;4.93;;
72413;SDS011;60995;52.154;4.498;2023-02-28T02:04:40;19.33;;;5.13;;
72413;SDS011;60995;52.154;4.498;2023-02-28T02:07:06;14.35;;;5.00;;
72413;SDS011;60995;52.154;4.498;2023-02-28T02:09:23;12.27;;;4.43;;
72413;SDS011;60995;52.154;4.498;2023-02-28T02:11:43;12.35;;;4.80;;
72413;SDS011;60995;52.154;4.498;2023-02-28T02:17:01;17.20;;;5.30;;
72413;SDS011;60995;52.154;4.498;2023-02-28T02:22:59;15.55;;;4.50;;
72413;SDS011;60995;52.154;4.498;2023-02-28T02:26:12;16.13;;;4.68;;
72413;SDS011;60995;52.154;4.498;2023-02-28T02:29:01;10.52;;;4.35;;
72413;SDS011;60995;52.154;4.498;2023-02-28T02:37:28;15.13;;;5.30;;
72413;SDS011;60995;52.154;4.498;2023-02-28T02:40:02;14.05;;;5.00;;
72413;SDS011;60995;52.154;4.498;2023-02-28T02:45:42;14.75;;;5.10;;
72413;SDS011;60995;52.154;4.498;2023-02-28T02:48:18;9.82;;;4.88;;
72413;SDS011;60995;52.154;4.498;2023-02-28T02:50:45;13.77;;;5.57;;
72413;SDS011;60995;52.154;4.498;2023-02-28T02:53:07;16.02;;;5.80;;
72413;SDS011;60995;52.154;4.498;2023-02-28T02:55:29;17.83;;;5.90;;
72413;SDS011;60995;52.154;4.498;2023-02-28T02:58:01;18.35;;;5.95;;
72413;SDS011;60995;52.154;4.498;2023-02-28T03:00:25;13.02;;;5.68;;
72413;SDS011;60995;52.154;4.498;2023-02-28T03:02:50;12.93;;;5.28;;
72413;SDS011;60995;52.154;4.498;2023-02-28T03:05:21;16.77;;;5.85;;
72413;SDS011;60995;52.154;4.498;2023-02-28T03:07:44;17.10;;;5.90;;
72413;SDS011;60995;52.154;4.498;2023-02-28T03:10:00;14.80;;;6.10;;
72413;SDS011;60995;52.154;4.498;2023-02-28T03:12:17;13.82;;;5.70;;
72413;SDS011;60995;52.154;4.498;2023-02-28T03:14:46;13.18;;;5.47;;
72413;SDS011;60995;52.154;4.498;2023-02-28T03:25:52;16.48;;;5.47;;
72413;SDS011;60995;52.154;4.498;2023-02-28T03:28:49;15.57;;;5.38;;
72413;SDS011;60995;52.154;4.498;2023-02-28T03:33:56;14.95;;;6.25;;
72413;SDS011;60995;52.154;4.498;2023-02-28T03:36:23;18.35;;;6.03;;
72413;SDS011;60995;52.154;4.498;2023-02-28T03:38:51;15.43;;;6.47;;
72413;SDS011;60995;52.154;4.498;2023-02-28T03:41:19;14.45;;;6.20;;
72413;SDS011;60995;52.154;4.498;2023-02-28T03:43:49;15.55;;;6.03;;
72413;SDS011;60995;52.154;4.498;2023-02-28T03:46:14;13.35;;;6.05;;
72413;SDS011;60995;52.154;4.498;2023-02-28T03:48:40;11.60;;;5.82;;
72413;SDS011;60995;52.154;4.498;2023-02-28T03:51:09;17.92;;;6.80;;
72413;SDS011;60995;52.154;4.498;2023-02-28T03:53:37;16.83;;;6.28;;
72413;SDS011;60995;52.154;4.498;2023-02-28T03:56:37;15.48;;;6.38;;
72413;SDS011;60995;52.154;4.498;2023-02-28T04:01:23;17.73;;;6.05;;
72413;SDS011;60995;52.154;4.498;2023-02-28T04:03:47;16.25;;;6.05;;
72413;SDS011;60995;52.154;4.498;2023-02-28T04:06:13;12.45;;;6.50;;
72413;SDS011;60995;52.154;4.498;2023-02-28T04:08:40;15.48;;;6.18;;
72413;SDS011;60995;52.154;4.498;2023-02-28T04:10:58;16.35;;;6.85;;
72413;SDS011;60995;52.154;4.498;2023-02-28T04:13:22;16.25;;;6.95;;
72413;SDS011;60995;52.154;4.498;2023-02-28T04:15:38;14.35;;;6.13;;
72413;SDS011;60995;52.154;4.498;2023-02-28T04:17:55;20.20;;;6.80;;
72413;SDS011;60995;52.154;4.498;2023-02-28T04:20:11;15.20;;;6.30;;
72413;SDS011;60995;52.154;4.498;2023-02-28T04:22:28;17.77;;;6.60;;
72413;SDS011;60995;52.154;4.498;2023-02-28T04:24:44;18.17;;;6.95;;
72413;SDS011;60995;52.154;4.498;2023-02-28T04:27:00;16.40;;;7.20;;
72413;SDS011;60995;52.154;4.498;2023-02-28T04:29:18;19.10;;;7.05;;
72413;SDS011;60995;52.154;4.498;2023-02-28T04:31:50;15.83;;;7.13;;
72413;SDS011;60995;52.154;4.498;2023-02-28T04:34:08;22.27;;;7.32;;
72413;SDS011;60995;52.154;4.498;2023-02-28T04:36:25;19.80;;;7.25;;
72413;SDS011;60995;52.154;4.498;2023-02-28T04:38:41;18.65;;;7.53;;
72413;SDS011;60995;52.154;4.498;2023-02-28T04:40:58;17.27;;;7.80;;
72413;SDS011;60995;52.154;4.498;2023-02-28T04:43:15;16.15;;;7.30;;
72413;SDS011;60995;52.154;4.498;2023-02-28T04:45:32;18.73;;;7.70;;
72413;SDS011;60995;52.154;4.498;2023-02-28T04:47:49;17.38;;;7.20;;
72413;SDS011;60995;52.154;4.498;2023-02-28T04:50:06;18.88;;;7.65;;
72413;SDS011;60995;52.154;4.498;2023-02-28T04:52:23;249.88;;;18.00;;
72413;SDS011;60995;52.154;4.498;2023-02-28T04:54:40;19.02;;;8.23;;
72413;SDS011;60995;52.154;4.498;2023-02-28T04:56:56;14.95;;;7.15;;
72413;SDS011;60995;52.154;4.498;2023-02-28T04:59:13;23.75;;;7.70;;
72413;SDS011;60995;52.154;4.498;2023-02-28T05:01:32;18.60;;;7.82;;
72413;SDS011;60995;52.154;4.498;2023-02-28T05:03:50;13.57;;;7.43;;
72413;SDS011;60995;52.154;4.498;2023-02-28T05:06:10;18.75;;;7.82;;
72413;SDS011;60995;52.154;4.498;2023-02-28T05:08:28;13.65;;;7.82;;
72413;SDS011;60995;52.154;4.498;2023-02-28T05:10:45;16.92;;;7.60;;
72413;SDS011;60995;52.154;4.498;2023-02-28T05:13:02;16.85;;;7.68;;
72413;SDS011;60995;52.154;4.498;2023-02-28T05:15:18;18.67;;;7.63;;
72413;SDS011;60995;52.154;4.498;2023-02-28T05:17:34;16.75;;;6.95;;
72413;SDS011;60995;52.154;4.498;2023-02-28T05:19:51;12.73;;;6.72;;
72413;SDS011;60995;52.154;4.498;2023-02-28T05:22:11;15.43;;;6.63;;
72413;SDS011;60995;52.154;4.498;2023-02-28T05:24:32;15.85;;;6.45;;
72413;SDS011;60995;52.154;4.498;2023-02-28T05:26:49;15.25;;;6.05;;
72413;SDS011;60995;52.154;4.498;2023-02-28T05:29:08;15.68;;;6.75;;
72413;SDS011;60995;52.154;4.498;2023-02-28T05:31:25;15.35;;;6.50;;
72413;SDS011;60995;52.154;4.498;2023-02-28T05:33:42;14.82;;;6.88;;
72413;SDS011;60995;52.154;4.498;2023-02-28T05:35:58;16.63;;;7.60;;
72413;SDS011;60995;52.154;4.498;2023-02-28T05:38:14;11.93;;;5.90;;
72413;SDS011;60995;52.154;4.498;2023-02-28T05:40:31;17.10;;;6.28;;
72413;SDS011;60995;52.154;4.498;2023-02-28T05:42:47;11.43;;;6.05;;
72413;SDS011;60995;52.154;4.498;2023-02-28T05:45:06;16.55;;;6.28;;
72413;SDS011;60995;52.154;4.498;2023-02-28T05:47:24;15.73;;;6.75;;
72413;SDS011;60995;52.154;4.498;2023-02-28T05:49:43;15.70;;;6.38;;
72413;SDS011;60995;52.154;4.498;2023-02-28T05:52:02;12.55;;;7.07;;
72413;SDS011;60995;52.154;4.498;2023-02-28T05:54:19;12.05;;;6.13;;
72413;SDS011;60995;52.154;4.498;2023-02-28T05:56:35;14.75;;;6.47;;
72413;SDS011;60995;52.154;4.498;2023-02-28T05:58:53;13.88;;;6.72;;
72413;SDS011;60995;52.154;4.498;2023-02-28T06:04:09;14.43;;;6.65;;
72413;SDS011;60995;52.154;4.498;2023-02-28T06:06:26;14.70;;;6.45;;
72413;SDS011;60995;52.154;4.498;2023-02-28T06:08:43;15.35;;;6.85;;
72413;SDS011;60995;52.154;4.498;2023-02-28T06:11:04;16.55;;;7.22;;
72413;SDS011;60995;52.154;4.498;2023-02-28T06:13:21;11.90;;;6.82;;
72413;SDS011;60995;52.154;4.498;2023-02-28T06:15:38;18.38;;;7.70;;
72413;SDS011;60995;52.154;4.498;2023-02-28T06:17:55;14.38;;;7.15;;
72413;SDS011;60995;52.154;4.498;2023-02-28T06:20:12;14.85;;;7.88;;
72413;SDS011;60995;52.154;4.498;2023-02-28T06:22:28;16.20;;;7.25;;
72413;SDS011;60995;52.154;4.498;2023-02-28T06:24:45;13.65;;;7.40;;
72413;SDS011;60995;52.154;4.498;2023-02-28T06:27:01;15.23;;;7.75;;
72413;SDS011;60995;52.154;4.498;2023-02-28T06:29:20;14.90;;;7.32;;
72413;SDS011;60995;52.154;4.498;2023-02-28T06:31:37;18.08;;;8.00;;
72413;SDS011;60995;52.154;4.498;2023-02-28T06:33:54;15.68;;;7.60;;
72413;SDS011;60995;52.154;4.498;2023-02-28T06:36:12;14.40;;;7.95;;
72413;SDS011;60995;52.154;4.498;2023-02-28T06:38:31;16.10;;;7.60;;
72413;SDS011;60995;52.154;4.498;2023-02-28T06:40:54;16.98;;;7.75;;
72413;SDS011;60995;52.154;4.498;2023-02-28T06:43:12;16.60;;;7.55;;
72413;SDS011;60995;52.154;4.498;2023-02-28T06:45:29;14.95;;;7.68;;
72413;SDS011;60995;52.154;4.498;2023-02-28T06:47:46;16.83;;;9.13;;
72413;SDS011;60995;52.154;4.498;2023-02-28T06:50:08;15.02;;;8.88;;
72413;SDS011;60995;52.154;4.498;2023-02-28T06:52:28;19.55;;;9.27;;
72413;SDS011;60995;52.154;4.498;2023-02-28T06:54:44;19.48;;;9.32;;
72413;SDS011;60995;52.154;4.498;2023-02-28T06:57:00;23.10;;;10.50;;
72413;SDS011;60995;52.154;4.498;2023-02-28T06:59:17;23.00;;;10.77;;
72413;SDS011;60995;52.154;4.498;2023-02-28T07:01:33;22.67;;;11.10;;
72413;SDS011;60995;52.154;4.498;2023-02-28T07:03:50;20.30;;;10.70;;
72413;SDS011;60995;52.154;4.498;2023-02-28T07:06:08;21.85;;;11.43;;
72413;SDS011;60995;52.154;4.498;2023-02-28T07:08:24;19.33;;;11.27;;
72413;SDS011;60995;52.154;4.498;2023-02-28T07:10:42;23.63;;;12.75;;
72413;SDS011;60995;52.154;4.498;2023-02-28T07:12:59;23.00;;;12.90;;
72413;SDS011;60995;52.154;4.498;2023-02-28T07:15:16;21.25;;;11.60;;
72413;SDS011;60995;52.154;4.498;2023-02-28T07:17:32;12.55;;;7.32;;
72413;SDS011;60995;52.154;4.498;2023-02-28T07:19:48;29.58;;;7.47;;
72413;SDS011;60995;52.154;4.498;2023-02-28T07:22:06;15.88;;;8.00;;
72413;SDS011;60995;52.154;4.498;2023-02-28T07:24:23;15.52;;;6.00;;
72413;SDS011;60995;52.154;4.498;2023-02-28T07:26:43;14.10;;;6.95;;
72413;SDS011;60995;52.154;4.498;2023-02-28T07:29:00;14.82;;;6.78;;
72413;SDS011;60995;52.154;4.498;2023-02-28T07:31:17;14.43;;;7.38;;
72413;SDS011;60995;52.154;4.498;2023-02-28T07:33:34;14.07;;;7.47;;
72413;SDS011;60995;52.154;4.498;2023-02-28T07:35:50;13.00;;;6.70;;
72413;SDS011;60995;52.154;4.498;2023-02-28T07:38:07;12.35;;;6.53;;
72413;SDS011;60995;52.154;4.498;2023-02-28T07:40:23;18.13;;;7.72;;
72413;SDS011;60995;52.154;4.498;2023-02-28T07:42:41;16.58;;;8.07;;
72413;SDS011;60995;52.154;4.498;2023-02-28T07:44:57;15.05;;;8.05;;
72413;SDS011;60995;52.154;4.498;2023-02-28T07:47:14;16.77;;;8.35;;
72413;SDS011;60995;52.154;4.498;2023-02-28T07:49:30;16.48;;;7.97;;
72413;SDS011;60995;52.154;4.498;2023-02-28T07:51:48;16.85;;;8.55;;
72413;SDS011;60995;52.154;4.498;2023-02-28T07:54:04;14.95;;;8.35;;
72413;SDS011;60995;52.154;4.498;2023-02-28T07:56:21;13.50;;;8.10;;
72413;SDS011;60995;52.154;4.498;2023-02-28T07:58:37;17.30;;;8.00;;
72413;SDS011;60995;52.154;4.498;2023-02-28T08:00:53;19.70;;;9.10;;
72413;SDS011;60995;52.154;4.498;2023-02-28T08:03:12;19.50;;;8.63;;
72413;SDS011;60995;52.154;4.498;2023-02-28T08:05:28;1028.38;;;52.30;;
72413;SDS011;60995;52.154;4.498;2023-02-28T08:07:45;1526.90;;;110.97;;
72413;SDS011;60995;52.154;4.498;2023-02-28T08:10:03;1431.18;;;75.95;;
72413;SDS011;60995;52.154;4.498;2023-02-28T08:12:21;599.88;;;38.75;;
72413;SDS011;60995;52.154;4.498;2023-02-28T08:14:37;177.02;;;12.73;;
72413;SDS011;60995;52.154;4.498;2023-02-28T08:16:55;20.27;;;8.80;;
72413;SDS011;60995;52.154;4.498;2023-02-28T08:19:11;18.10;;;8.77;;
72413;SDS011;60995;52.154;4.498;2023-02-28T08:21:27;20.38;;;8.82;;
72413;SDS011;60995;52.154;4.498;2023-02-28T08:23:46;22.42;;;10.30;;
72413;SDS011;60995;52.154;4.498;2023-02-28T08:26:04;17.92;;;9.50;;
72413;SDS011;60995;52.154;4.498;2023-02-28T08:28:21;17.13;;;9.70;;
72413;SDS011;60995;52.154;4.498;2023-02-28T08:30:37;17.33;;;9.18;;
72413;SDS011;60995;52.154;4.498;2023-02-28T08:32:56;16.38;;;8.30;;
72413;SDS011;60995;52.154;4.498;2023-02-28T08:35:13;32.42;;;10.18;;
72413;SDS011;60995;52.154;4.498;2023-02-28T08:37:29;17.85;;;10.18;;
72413;SDS011;60995;52.154;4.498;2023-02-28T08:39:45;17.92;;;9.90;;
72413;SDS011;60995;52.154;4.498;2023-02-28T08:42:02;17.30;;;10.25;;
72413;SDS011;60995;52.154;4.498;2023-02-28T08:44:19;17.80;;;9.77;;
72413;SDS011;60995;52.154;4.498;2023-02-28T08:46:36;18.23;;;10.25;;
72413;SDS011;60995;52.154;4.498;2023-02-28T08:48:54;40.08;;;11.93;;
72413;SDS011;60995;52.154;4.498;2023-02-28T08:51:15;42.97;;;10.65;;
72413;SDS011;60995;52.154;4.498;2023-02-28T08:53:41;15.15;;;9.38;;
72413;SDS011;60995;52.154;4.498;2023-02-28T08:56:02;15.00;;;8.73;;
72413;SDS011;60995;52.154;4.498;2023-02-28T08:58:22;16.88;;;9.07;;
72413;SDS011;60995;52.154;4.498;2023-02-28T09:00:38;14.98;;;8.88;;
72413;SDS011;60995;52.154;4.498;2023-02-28T09:02:54;16.52;;;9.43;;
72413;SDS011;60995;52.154;4.498;2023-02-28T09:05:10;15.07;;;8.32;;
72413;SDS011;60995;52.154;4.498;2023-02-28T09:07:27;17.70;;;8.82;;
72413;SDS011;60995;52.154;4.498;2023-02-28T09:09:43;16.92;;;8.77;;
72413;SDS011;60995;52.154;4.498;2023-02-28T09:12:10;15.40;;;8.10;;
72413;SDS011;60995;52.154;4.498;2023-02-28T09:14:26;15.20;;;8.48;;
72413;SDS011;60995;52.154;4.498;2023-02-28T09:16:42;14.38;;;7.63;;
72413;SDS011;60995;52.154;4.498;2023-02-28T09:18:59;14.68;;;7.63;;
72413;SDS011;60995;52.154;4.498;2023-02-28T09:21:16;12.55;;;7.20;;
72413;SDS011;60995;52.154;4.498;2023-02-28T09:23:34;15.18;;;7.72;;
72413;SDS011;60995;52.154;4.498;2023-02-28T09:25:54;12.40;;;6.88;;
72413;SDS011;60995;52.154;4.498;2023-02-28T09:28:10;13.00;;;6.55;;
72413;SDS011;60995;52.154;4.498;2023-02-28T09:30:27;10.45;;;5.78;;
72413;SDS011;60995;52.154;4.498;2023-02-28T09:32:44;13.80;;;6.97;;
72413;SDS011;60995;52.154;4.498;2023-02-28T09:35:07;13.47;;;5.93;;
72413;SDS011;60995;52.154;4.498;2023-02-28T09:37:29;12.75;;;6.57;;
72413;SDS011;60995;52.154;4.498;2023-02-28T09:39:46;10.63;;;6.38;;
72413;SDS011;60995;52.154;4.498;2023-02-28T09:42:02;8.80;;;5.10;;
72413;SDS011;60995;52.154;4.498;2023-02-28T09:44:23;10.00;;;5.10;;
72413;SDS011;60995;52.154;4.498;2023-02-28T09:46:55;11.48;;;4.88;;
72413;SDS011;60995;52.154;4.498;2023-02-28T09:49:18;9.63;;;5.80;;
72413;SDS011;60995;52.154;4.498;2023-02-28T09:52:07;9.93;;;5.93;;
72413;SDS011;60995;52.154;4.498;2023-02-28T09:54:46;11.38;;;5.03;;
72413;SDS011;60995;52.154;4.498;2023-02-28T09:59:29;6.85;;;3.78;;
72413;SDS011;60995;52.154;4.498;2023-02-28T10:07:33;7.45;;;3.08;;
72413;SDS011;60995;52.154;4.498;2023-02-28T10:10:07;675.35;;;31.85;;
72413;SDS011;60995;52.154;4.498;2023-02-28T10:12:44;7.10;;;3.30;;
72413;SDS011;60995;52.154;4.498;2023-02-28T10:15:03;8.50;;;3.15;;
72413;SDS011;60995;52.154;4.498;2023-02-28T10:17:22;5.75;;;2.70;;
72413;SDS011;60995;52.154;4.498;2023-02-28T10:19:46;9.77;;;2.97;;
72413;SDS011;60995;52.154;4.498;2023-02-28T10:24:43;9.65;;;3.80;;
72413;SDS011;60995;52.154;4.498;2023-02-28T10:27:14;9.75;;;3.80;;
72413;SDS011;60995;52.154;4.498;2023-02-28T10:29:37;31.08;;;4.93;;
72413;SDS011;60995;52.154;4.498;2023-02-28T10:31:58;105.90;;;8.82;;
72413;SDS011;60995;52.154;4.498;2023-02-28T10:34:19;9.40;;;3.95;;
72413;SDS011;60995;52.154;4.498;2023-02-28T10:36:35;16.02;;;4.15;;
72413;SDS011;60995;52.154;4.498;2023-02-28T10:38:51;8.77;;;3.90;;
72413;SDS011;60995;52.154;4.498;2023-02-28T10:43:28;7.03;;;3.25;;
72413;SDS011;60995;52.154;4.498;2023-02-28T10:50:44;6.75;;;3.08;;
72413;SDS011;60995;52.154;4.498;2023-02-28T10:55:41;7.45;;;3.13;;
72413;SDS011;60995;52.154;4.498;2023-02-28T10:57:58;12.93;;;6.55;;
72413;SDS011;60995;52.154;4.498;2023-02-28T11:00:16;130.38;;;8.38;;
72413;SDS011;60995;52.154;4.498;2023-02-28T11:02:40;5.68;;;2.95;;
72413;SDS011;60995;52.154;4.498;2023-02-28T11:05:00;5.32;;;2.80;;
72413;SDS011;60995;52.154;4.498;2023-02-28T11:07:21;7.30;;;3.10;;
72413;SDS011;60995;52.154;4.498;2023-02-28T11:09:40;6.70;;;3.08;;
72413;SDS011;60995;52.154;4.498;2023-02-28T11:11:59;7.03;;;2.97;;
72413;SDS011;60995;52.154;4.498;2023-02-28T11:14:26;8.00;;;2.92;;
72413;SDS011;60995;52.154;4.498;2023-02-28T11:16:46;7.75;;;3.35;;
72413;SDS011;60995;52.154;4.498;2023-02-28T11:19:06;7.43;;;2.90;;
72413;SDS011;60995;52.154;4.498;2023-02-28T11:21:38;7.93;;;2.65;;
72413;SDS011;60995;52.154;4.498;2023-02-28T11:24:03;6.15;;;2.88;;
72413;SDS011;60995;52.154;4.498;2023-02-28T11:26:44;5.55;;;2.35;;
72413;SDS011;60995;52.154;4.498;2023-02-28T11:31:35;5.43;;;2.15;;
72413;SDS011;60995;52.154;4.498;2023-02-28T11:33:53;6.03;;;2.17;;
72413;SDS011;60995;52.154;4.498;2023-02-28T11:36:13;8.63;;;2.28;;
72413;SDS011;60995;52.154;4.498;2023-02-28T11:38:46;5.15;;;2.28;;
72413;SDS011;60995;52.154;4.498;2023-02-28T11:41:19;6.28;;;2.17;;
72413;SDS011;60995;52.154;4.498;2023-02-28T11:47:12;7.60;;;2.80;;
72413;SDS011;60995;52.154;4.498;2023-02-28T11:52:35;9.23;;;2.40;;
72413;SDS011;60995;52.154;4.498;2023-02-28T11:58:00;10.40;;;5.13;;
72413;SDS011;60995;52.154;4.498;2023-02-28T12:00:55;4.53;;;2.40;;
72413;SDS011;60995;52.154;4.498;2023-02-28T12:08:54;5.90;;;2.40;;
72413;SDS011;60995;52.154;4.498;2023-02-28T12:12:34;4.60;;;2.22;;
72413;SDS011;60995;52.154;4.498;2023-02-28T12:20:38;6.22;;;2.20;;
72413;SDS011;60995;52.154;4.498;2023-02-28T12:25:59;5.68;;;2.50;;
72413;SDS011;60995;52.154;4.498;2023-02-28T12:28:46;5.50;;;1.80;;
72413;SDS011;60995;52.154;4.498;2023-02-28T12:31:20;4.78;;;1.83;;
72413;SDS011;60995;52.154;4.498;2023-02-28T12:33:46;3.85;;;2.03;;
72413;SDS011;60995;52.154;4.498;2023-02-28T12:36:21;3.88;;;1.98;;
72413;SDS011;60995;52.154;4.498;2023-02-28T12:38:43;8.07;;;1.85;;
72413;SDS011;60995;52.154;4.498;2023-02-28T12:43:48;3.70;;;2.00;;
72413;SDS011;60995;52.154;4.498;2023-02-28T12:46:21;5.78;;;2.40;;
72413;SDS011;60995;52.154;4.498;2023-02-28T12:48:59;5.13;;;1.88;;
72413;SDS011;60995;52.154;4.498;2023-02-28T12:51:43;5.57;;;2.60;;
72413;SDS011;60995;52.154;4.498;2023-02-28T13:08:23;4.18;;;2.00;;
72413;SDS011;60995;52.154;4.498;2023-02-28T13:11:01;6.35;;;2.45;;
72413;SDS011;60995;52.154;4.498;2023-02-28T13:13:19;4.93;;;2.03;;
72413;SDS011;60995;52.154;4.498;2023-02-28T13:15:40;6.22;;;2.33;;
72413;SDS011;60995;52.154;4.498;2023-02-28T13:18:00;5.82;;;2.25;;
72413;SDS011;60995;52.154;4.498;2023-02-28T13:20:21;8.30;;;2.50;;
72413;SDS011;60995;52.154;4.498;2023-02-28T13:22:49;5.57;;;2.00;;
72413;SDS011;60995;52.154;4.498;2023-02-28T13:25:52;4.95;;;2.22;;
72413;SDS011;60995;52.154;4.498;2023-02-28T13:27:49;4.93;;;2.30;;
72413;SDS011;60995;52.154;4.498;2023-02-28T13:35:48;6.32;;;2.72;;
72413;SDS011;60995;52.154;4.498;2023-02-28T13:38:24;4.28;;;1.95;;
72413;SDS011;60995;52.154;4.498;2023-02-28T13:40:50;6.65;;;2.30;;
72413;SDS011;60995;52.154;4.498;2023-02-28T13:43:07;4.22;;;2.05;;
72413;SDS011;60995;52.154;4.498;2023-02-28T13:45:26;4.95;;;2.05;;
72413;SDS011;60995;52.154;4.498;2023-02-28T13:47:56;4.88;;;2.20;;
72413;SDS011;60995;52.154;4.498;2023-02-28T13:52:44;7.68;;;2.70;;
72413;SDS011;60995;52.154;4.498;2023-02-28T14:01:03;5.45;;;2.75;;
72413;SDS011;60995;52.154;4.498;2023-02-28T14:03:49;5.30;;;2.53;;
72413;SDS011;60995;52.154;4.498;2023-02-28T14:06:28;4.75;;;2.50;;
72413;SDS011;60995;52.154;4.498;2023-02-28T14:08:51;5.68;;;2.53;;
72413;SDS011;60995;52.154;4.498;2023-02-28T14:14:03;6.75;;;2.70;;
72413;SDS011;60995;52.154;4.498;2023-02-28T14:16:35;5.60;;;2.40;;
72413;SDS011;60995;52.154;4.498;2023-02-28T14:35:54;21.50;;;10.43;;
72413;SDS011;60995;52.154;4.498;2023-02-28T14:38:23;5.22;;;2.13;;
72413;SDS011;60995;52.154;4.498;2023-02-28T14:40:48;7.75;;;2.30;;
72413;SDS011;60995;52.154;4.498;2023-02-28T14:43:18;5.32;;;2.25;;
72413;SDS011;60995;52.154;4.498;2023-02-28T14:45:43;6.05;;;2.10;;
72413;SDS011;60995;52.154;4.498;2023-02-28T14:47:59;5.72;;;2.70;;
72413;SDS011;60995;52.154;4.498;2023-02-28T14:50:21;5.45;;;2.40;;
72413;SDS011;60995;52.154;4.498;2023-02-28T14:52:46;5.05;;;2.17;;
72413;SDS011;60995;52.154;4.498;2023-02-28T14:55:05;7.55;;;3.13;;
72413;SDS011;60995;52.154;4.498;2023-02-28T14:57:31;6.32;;;2.70;;
72413;SDS011;60995;52.154;4.498;2023-02-28T15:02:39;7.05;;;2.35;;
72413;SDS011;60995;52.154;4.498;2023-02-28T15:07:25;6.55;;;2.55;;
72413;SDS011;60995;52.154;4.498;2023-02-28T15:09:45;5.75;;;2.60;;
72413;SDS011;60995;52.154;4.498;2023-02-28T15:12:02;5.68;;;2.40;;
72413;SDS011;60995;52.154;4.498;2023-02-28T15:14:19;8.15;;;2.58;;
72413;SDS011;60995;52.154;4.498;2023-02-28T15:16:39;6.35;;;2.53;;
72413;SDS011;60995;52.154;4.498;2023-02-28T15:19:05;6.88;;;2.15;;
72413;SDS011;60995;52.154;4.498;2023-02-28T15:21:38;13.70;;;5.55;;
72413;SDS011;60995;52.154;4.498;2023-02-28T15:26:37;6.57;;;2.70;;
72413;SDS011;60995;52.154;4.498;2023-02-28T15:28:59;5.00;;;2.67;;
72413;SDS011;60995;52.154;4.498;2023-02-28T15:31:44;5.63;;;2.25;;
72413;SDS011;60995;52.154;4.498;2023-02-28T15:34:38;5.28;;;2.50;;
72413;SDS011;60995;52.154;4.498;2023-02-28T15:36:58;4.63;;;2.05;;
72413;SDS011;60995;52.154;4.498;2023-02-28T15:39:21;5.28;;;2.22;;
72413;SDS011;60995;52.154;4.498;2023-02-28T15:41:40;5.28;;;2.65;;
72413;SDS011;60995;52.154;4.498;2023-02-28T15:49:20;7.75;;;2.30;;
72413;SDS011;60995;52.154;4.498;2023-02-28T15:51:39;4.50;;;1.95;;
72413;SDS011;60995;52.154;4.498;2023-02-28T15:53:58;5.07;;;2.20;;
72413;SDS011;60995;52.154;4.498;2023-02-28T15:56:21;6.47;;;2.88;;
72413;SDS011;60995;52.154;4.498;2023-02-28T15:58:49;12.95;;;6.68;;
72413;SDS011;60995;52.154;4.498;2023-02-28T16:01:18;5.10;;;2.15;;
72413;SDS011;60995;52.154;4.498;2023-02-28T16:03:52;6.18;;;2.75;;
72413;SDS011;60995;52.154;4.498;2023-02-28T16:08:32;6.38;;;2.60;;
72413;SDS011;60995;52.154;4.498;2023-02-28T16:10:48;5.95;;;2.78;;
72413;SDS011;60995;52.154;4.498;2023-02-28T16:13:04;6.18;;;2.60;;
72413;SDS011;60995;52.154;4.498;2023-02-28T16:15:23;6.07;;;2.92;;
72413;SDS011;60995;52.154;4.498;2023-02-28T16:17:44;8.10;;;2.80;;
72413;SDS011;60995;52.154;4.498;2023-02-28T16:20:05;5.75;;;2.42;;
72413;SDS011;60995;52.154;4.498;2023-02-28T16:22:32;6.53;;;2.55;;
72413;SDS011;60995;52.154;4.498;2023-02-28T16:24:49;5.93;;;2.92;;
72413;SDS011;60995;52.154;4.498;2023-02-28T16:27:05;5.20;;;2.50;;
72413;SDS011;60995;52.154;4.498;2023-02-28T16:29:32;8.65;;;2.60;;
72413;SDS011;60995;52.154;4.498;2023-02-28T16:31:53;7.13;;;2.50;;